Latest Weather Observations for Centre Island

IDD60801

Issued at 8:31 am CST Sunday 30 August 2015 (issued every 30 minutes, with the page automatically refreshed every 10 minutes)

About weather observations | Map of weather stations | Latest weather observations for NT | Other Formats
Station Details ID: 014703 Name: CENTRE ISLAND Lat: -15.74 Lon: 136.82 Height: 12.2 m
Data from the previous 72 hours. | See also: Recent months at Centre Island
Date/Time
CST
Temp
°C
App
Temp
°C
Dew
Point
Rel
Hum
%
Delta-T
°C
Wind Press
QNH
hPa
Press
MSL
hPa
Rain
since 9 am
mm
Dir
 
Spd
km/h
Gust
km/h
Spd
kts
Gust
kts
30/08:30am 25.7 21.5 13.5 46 7.2 SSE 28 32 15 17 1017.3 1017.3 0.0
30/08:00am 25.4 20.5 13.6 48 6.9 SSE 32 37 17 20 1016.8 1016.8 0.0
30/07:30am 25.0 20.2 14.5 52 6.2 SSE 33 39 18 21 1016.6 1016.6 0.0
30/07:00am 24.5 20.0 14.9 55 5.7 SE 32 37 17 20 1016.1 1016.1 0.0
30/06:30am 24.4 19.4 13.3 50 6.5 SSE 32 35 17 19 1015.8 1015.8 0.0
30/06:00am 24.8 20.4 13.0 47 6.8 SSE 28 35 15 19 1015.5 1015.5 0.0
30/05:30am 24.8 22.1 14.6 53 6.1 S 22 28 12 15 1015.2 1015.2 0.0
30/05:00am 24.6 22.6 15.5 57 5.5 S 20 26 11 14 1015.0 1015.0 0.0
30/04:30am 23.2 23.5 18.7 76 2.8 SW 15 17 8 9 1015.0 1015.0 0.0
30/04:00am 23.1 24.3 19.9 82 2.1 SW 13 17 7 9 1014.9 1014.9 0.0
30/03:30am 23.2 25.2 21.5 90 1.1 WSW 13 17 7 9 1015.1 1015.1 0.0
30/03:00am 22.0 24.5 20.3 90 1.1 WNW 7 9 4 5 1015.2 1015.2 0.0
30/02:30am 21.8 25.3 19.5 87 1.5 CALM 0 7 0 4 1015.1 1015.1 0.0
30/02:00am 21.9 24.5 19.3 85 1.7 WNW 4 6 2 3 1015.1 1015.1 0.0
30/01:30am 22.3 24.9 20.0 87 1.5 WNW 6 7 3 4 1015.5 1015.5 0.0
30/01:00am 22.4 25.9 19.6 84 1.8 CALM 0 0 0 0 1015.7 1015.7 0.0
30/12:30am 22.5 24.8 19.5 83 1.9 WNW 6 6 3 3 1016.0 1016.0 0.0
30/12:00am 23.1 26.4 19.9 82 2.1 WNW 2 7 1 4 1016.1 1016.1 0.0
 
Date/Time
CST
Temp
°C
App
Temp
°C
Dew
Point
Rel
Hum
%
Delta-T
°C
Wind Press
QNH
hPa
Press
MSL
hPa
Rain
since 9 am
mm
Dir
 
Spd
km/h
Gust
km/h
Spd
kts
Gust
kts
29/11:30pm 22.9 24.9 19.1 79 2.4 WNW 7 9 4 5 1016.2 1016.2 0.0
29/11:00pm 23.0 25.5 19.0 78 2.5 WNW 4 7 2 4 1016.2 1016.2 0.0
29/10:30pm 23.2 25.2 18.7 76 2.8 NW 6 7 3 4 1016.3 1016.3 0.0
29/10:00pm 23.6 25.6 19.1 76 2.9 NW 7 11 4 6 1016.3 1016.3 0.0
29/09:30pm 22.9 25.0 18.9 78 2.5 NW 6 7 3 4 1016.0 1016.0 0.0
29/09:00pm 23.1 24.8 18.6 76 2.8 NNW 7 7 4 4 1015.8 1015.8 0.0
29/08:30pm 23.8 25.4 19.1 75 3.0 N 9 11 5 6 1015.6 1015.6 0.0
29/08:00pm 23.9 25.1 18.3 71 3.5 N 9 11 5 6 1015.4 1015.4 0.0
29/07:30pm 24.4 25.0 18.6 70 3.7 N 13 19 7 10 1015.1 1015.1 0.0
29/07:00pm 24.7 24.1 18.9 70 3.7 NNE 20 26 11 14 1014.6 1014.6 0.0
29/06:30pm 25.0 24.4 18.4 66 4.2 NNE 19 24 10 13 1014.3 1014.3 0.0
29/06:00pm 25.7 24.3 17.9 62 4.9 NNE 22 28 12 15 1014.0 1014.0 0.0
29/05:30pm 26.4 26.0 18.8 63 4.9 NNE 19 26 10 14 1014.1 1014.1 0.0
29/05:00pm 27.6 27.4 18.6 58 5.8 NNE 17 22 9 12 1014.0 1014.0 0.0
29/04:30pm 29.4 29.2 17.6 49 7.5 ENE 15 20 8 11 1013.9 1013.9 0.0
29/04:00pm 29.8 28.1 17.3 47 7.9 ENE 22 26 12 14 1014.0 1014.0 0.0
29/03:30pm 29.7 27.7 16.5 45 8.2 E 22 28 12 15 1014.2 1014.2 0.0
29/03:00pm 29.5 28.8 18.3 51 7.2 ESE 19 20 10 11 1014.5 1014.5 0.0
29/02:30pm 29.9 29.2 18.3 49 7.4 ESE 19 24 10 13 1015.0 1015.0 0.0
29/02:00pm 30.4 28.9 17.8 46 8.0 E 22 28 12 15 1015.4 1015.4 0.0
29/01:30pm 30.3 28.7 17.4 46 8.2 E 22 26 12 14 1015.8 1015.8 0.0
29/01:00pm 30.8 30.0 19.2 50 7.6 E 22 28 12 15 1016.3 1016.3 0.0
29/12:30pm 29.0 26.3 17.5 49 7.3 ESE 28 32 15 17 1016.8 1016.8 0.0
29/12:00pm 28.4 26.9 17.6 52 6.8 ESE 22 28 12 15 1017.2 1017.2 0.0
29/11:30am 28.1 26.2 17.6 53 6.6 ESE 24 30 13 16 1017.7 1017.7 0.0
29/11:00am 28.6 26.4 17.8 52 6.9 ESE 26 32 14 17 1018.0 1018.0 0.0
29/10:30am 28.0 24.8 17.2 52 6.8 ESE 30 35 16 19 1018.3 1018.3 0.0
29/10:00am 27.3 24.2 16.6 52 6.6 ESE 28 33 15 18 1018.3 1018.3 0.0
29/09:30am 26.9 24.5 17.4 56 5.9 ESE 26 32 14 17 1018.2 1018.2 0.0
29/09:00am 26.5 25.9 17.6 58 5.6 ESE 17 20 9 11 1017.8 1017.8 0.0
29/08:30am 25.5 24.7 17.2 60 5.2 SE 17 20 9 11 1017.4 1017.4 0.0
29/08:00am 25.1 24.8 18.3 66 4.3 SSE 17 20 9 11 1017.4 1017.4 0.0
29/07:30am 24.8 23.7 17.3 63 4.7 SE 19 22 10 12 1017.0 1017.0 0.0
29/07:00am 23.8 23.6 19.3 76 2.9 SE 19 20 10 11 1016.6 1016.6 0.0
29/06:30am 23.4 23.3 20.0 81 2.2 SSE 20 22 11 12 1016.3 1016.3 0.0
29/06:00am 23.4 23.5 20.0 81 2.2 SSE 19 22 10 12 1016.1 1016.1 0.0
29/05:30am 23.4 22.9 20.0 81 2.2 SSE 22 24 12 13 1015.8 1015.8 0.0
29/05:00am 23.5 23.8 20.8 85 1.8 S 20 24 11 13 1015.5 1015.5 0.0
29/04:30am 23.9 24.2 20.8 83 2.0 S 20 26 11 14 1015.5 1015.5 0.0
29/04:00am 23.9 24.5 21.0 84 1.9 SSE 19 22 10 12 1015.7 1015.7 0.0
29/03:30am 23.7 25.3 20.8 84 1.9 SSE 13 15 7 8 1015.8 1015.8 0.0
29/03:00am 23.5 24.7 20.6 84 1.9 SE 15 22 8 12 1015.9 1015.9 0.0
29/02:30am 23.6 23.3 21.1 86 1.6 SSE 24 26 13 14 1016.3 1016.3 0.0
29/02:00am 23.5 23.1 21.0 86 1.6 SSE 24 26 13 14 1016.5 1016.5 0.0
29/01:30am 23.6 24.2 21.3 87 1.5 SSE 20 24 11 13 1016.5 1016.5 0.0
29/01:00am 23.6 25.1 21.3 87 1.5 SSE 15 19 8 10 1016.7 1016.7 0.0
29/12:30am 23.8 25.2 21.1 85 1.8 S 15 19 8 10 1017.0 1017.0 0.0
29/12:00am 23.8 26.0 21.1 85 1.8 SE 11 13 6 7 1017.2 1017.2 0.0
 
Date/Time
CST
Temp
°C
App
Temp
°C
Dew
Point
Rel
Hum
%
Delta-T
°C
Wind Press
QNH
hPa
Press
MSL
hPa
Rain
since 9 am
mm
Dir
 
Spd
km/h
Gust
km/h
Spd
kts
Gust
kts
28/11:30pm 23.8 26.0 21.1 85 1.8 ESE 11 15 6 8 1017.4 1017.4 0.0
28/11:00pm 23.9 25.4 21.2 85 1.8 SE 15 17 8 9 1017.4 1017.4 0.0
28/10:30pm 23.7 24.7 21.0 85 1.8 ENE 17 19 9 10 1017.0 1017.0 0.0
28/10:00pm 23.7 25.0 20.8 84 1.9 ENE 15 19 8 10 1017.0 1017.0 0.0
28/09:30pm 23.7 25.3 20.8 84 1.9 ENE 13 17 7 9 1016.8 1016.8 0.0
28/09:00pm 23.7 25.2 20.6 83 2.0 ENE 13 17 7 9 1016.7 1016.7 0.0
28/08:30pm 23.8 25.3 20.5 82 2.1 ENE 13 15 7 8 1016.4 1016.4 0.0
28/08:00pm 23.9 25.2 20.2 80 2.4 ENE 13 15 7 8 1016.0 1016.0 0.0
28/07:30pm 24.0 25.3 20.1 79 2.5 NE 13 15 7 8 1015.5 1015.5 0.0
28/07:00pm 24.2 25.8 19.9 77 2.8 NE 11 17 6 9 1015.2 1015.2 0.0
28/06:30pm 24.6 25.8 19.9 75 3.0 NE 13 19 7 10 1014.7 1014.7 0.0
28/06:00pm 25.1 25.7 19.5 71 3.6 NE 15 20 8 11 1014.4 1014.4 0.0
28/05:30pm 26.0 26.1 19.9 69 4.0 NE 19 24 10 13 1014.0 1014.0 0.0
28/05:00pm 26.4 26.6 20.5 70 3.9 NE 20 28 11 15 1013.7 1013.7 0.0
28/04:30pm 27.0 26.7 20.3 66 4.4 NE 22 30 12 16 1013.6 1013.6 0.0
28/04:00pm 27.9 27.4 19.9 61 5.2 NE 22 28 12 15 1013.6 1013.6 0.0
28/03:30pm 28.2 28.1 20.0 61 5.4 ENE 20 28 11 15 1013.7 1013.7 0.0
28/03:00pm 28.3 27.5 19.2 57 5.9 ENE 22 30 12 16 1014.0 1014.0 0.0
28/02:30pm 28.2 26.9 19.1 57 5.9 E 24 28 13 15 1014.5 1014.5 0.0
28/02:00pm 28.5 27.0 18.6 55 6.4 E 24 30 13 16 1014.9 1014.9 0.0
28/01:30pm 28.3 27.1 19.2 57 5.9 ESE 24 28 13 15 1015.5 1015.5 0.0
28/01:00pm 28.2 26.6 18.3 55 6.3 E 24 30 13 16 1015.9 1015.9 0.0
28/12:30pm 28.3 26.7 19.2 57 5.9 E 26 33 14 18 1016.3 1016.3 0.0
28/12:00pm 27.9 25.0 18.9 58 5.8 ESE 32 35 17 19 1016.5 1016.5 0.0
28/11:30am 27.4 24.3 18.9 59 5.5 ESE 33 39 18 21 1016.9 1016.9 0.0
28/11:00am 26.8 24.2 18.6 60 5.2 ESE 30 35 16 19 1017.2 1017.2 0.0
28/10:30am 26.5 23.3 18.6 62 5.0 ESE 33 39 18 21 1017.3 1017.3 0.0
28/10:00am 26.3 23.2 18.9 63 4.7 ESE 33 39 18 21 1017.7 1017.7 0.0
28/09:30am 25.9 22.1 18.1 62 4.9 ESE 35 43 19 23 1017.8 1017.8 0.0
28/09:00am 25.6 22.9 19.3 68 4.0 SE 32 35 17 19 1017.9 1017.9 0.2
28/08:30am 24.7 24.4 20.4 77 2.8 SSE 22 26 12 14 1017.3 1017.3 0.2
28/08:00am 24.4 25.1 21.5 84 1.9 SSE 20 22 11 12 1017.1 1017.1 0.2
28/07:30am 23.7 25.0 21.6 88 1.4 SE 17 17 9 9 1016.6 1016.6 0.2
28/07:00am 22.9 24.7 21.9 94 0.7 SE 15 19 8 10 1016.1 1016.1 0.2
28/06:30am 22.6 24.4 21.9 96 0.5 SSE 15 19 8 10 1015.8 1015.8 0.2
28/06:00am 22.6 24.0 21.8 95 0.5 SSE 17 19 9 10 1015.5 1015.5 0.2
28/05:30am 23.1 24.5 21.9 93 0.8 SSE 17 20 9 11 1015.2 1015.2 0.2
28/05:00am 23.2 25.1 22.0 93 0.8 SSE 15 19 8 10 1015.2 1015.2 0.2
28/04:30am 23.3 25.1 21.9 92 0.9 SSE 15 17 8 9 1015.3 1015.3 0.2
28/04:00am 23.4 25.3 22.0 92 0.9 SSE 15 17 8 9 1015.4 1015.4 0.2
28/03:30am 23.2 26.0 21.6 91 1.1 SSE 9 13 5 7 1015.5 1015.5 0.2
28/03:00am 23.3 27.0 22.3 94 0.7 ESE 6 13 3 7 1015.6 1015.6 0.2
28/02:30am 22.6 27.0 21.4 93 0.8 CALM 0 0 0 0 1015.4 1015.4 0.2
28/02:00am 22.6 27.0 21.4 93 0.8 CALM 0 0 0 0 1015.7 1015.7 0.2
28/01:30am 22.7 27.1 21.3 92 0.9 CALM 0 0 0 0 1015.9 1015.9 0.2
28/01:00am 23.1 26.4 21.5 91 1.1 N 6 7 3 4 1016.1 1016.1 0.2
28/12:30am 23.4 26.3 21.8 91 1.1 NNE 9 11 5 6 1016.4 1016.4 0.2
28/12:00am 23.5 26.0 21.8 90 1.1 NE 11 13 6 7 1016.5 1016.5 0.2
 
Date/Time
CST
Temp
°C
App
Temp
°C
Dew
Point
Rel
Hum
%
Delta-T
°C
Wind Press
QNH
hPa
Press
MSL
hPa
Rain
since 9 am
mm
Dir
 
Spd
km/h
Gust
km/h
Spd
kts
Gust
kts
27/11:30pm 23.6 25.8 21.9 90 1.1 NE 13 15 7 8 1016.6 1016.6 0.2
27/11:00pm 23.7 26.0 22.0 90 1.1 NE 13 15 7 8 1016.7 1016.7 0.2
27/10:30pm 23.8 26.0 21.9 89 1.3 NE 13 15 7 8 1016.7 1016.7 0.2
27/10:00pm 23.9 26.1 21.8 88 1.4 NE 13 17 7 9 1016.6 1016.6 0.2
27/09:30pm 23.9 26.2 21.4 86 1.6 NNE 11 13 6 7 1016.4 1016.4 0.2
27/09:00pm 24.1 26.0 21.4 85 1.8 NNE 13 17 7 9 1016.2 1016.2 0.2
27/08:30pm 24.3 26.0 21.6 85 1.8 NNE 15 20 8 11 1016.0 1016.0 0.2
27/08:00pm 24.3 25.6 21.6 85 1.8 NNE 17 20 9 11 1015.8 1015.8 0.2
27/07:30pm 24.5 25.9 21.8 85 1.8 NNE 17 20 9 11 1015.5 1015.5 0.2
27/07:00pm 24.7 25.9 21.4 82 2.2 NNE 17 24 9 13 1015.1 1015.1 0.2
27/06:30pm 25.0 25.9 20.9 78 2.7 NE 17 20 9 11 1014.8 1014.8 0.2
27/06:00pm 25.4 26.2 21.3 78 2.7 NNE 19 24 10 13 1014.5 1014.5 0.2
27/05:30pm 26.3 26.9 21.1 73 3.4 NNE 19 24 10 13 1014.4 1014.4 0.2
27/05:00pm 26.7 26.6 20.8 70 3.9 NNE 22 32 12 17 1014.1 1014.1 0.2
27/04:30pm 27.3 27.0 21.1 69 4.1 NNE 24 30 13 16 1013.9 1013.9 0.2
27/04:00pm 28.1 28.2 21.1 65 4.7 NNE 22 30 12 16 1013.8 1013.8 0.2
27/03:30pm 28.5 28.1 20.2 60 5.5 NNE 22 30 12 16 1013.8 1013.8 0.2
27/03:00pm 30.3 29.8 19.9 53 6.8 ENE 22 26 12 14 1014.0 1014.0 0.2
27/02:30pm 29.9 29.8 19.6 54 6.7 E 19 24 10 13 1014.4 1014.4 0.2
27/02:00pm 29.3 29.2 19.6 56 6.3 ESE 19 24 10 13 1014.9 1014.9 0.2
27/01:30pm 29.2 28.7 19.2 54 6.5 ESE 20 24 11 13 1015.3 1015.3 0.2
27/01:00pm 28.6 27.3 19.0 56 6.2 ESE 24 28 13 15 1015.9 1015.9 0.2
27/12:30pm 28.6 27.7 19.8 59 5.7 ESE 24 26 13 14 1016.3 1016.3 0.2
27/12:00pm 28.5 28.9 21.0 64 5.0 E 20 26 11 14 1016.7 1016.7 0.2
27/11:30am 28.7 29.5 21.7 66 4.7 E 20 26 11 14 1017.1 1017.1 0.2
27/11:00am 28.2 29.8 21.5 67 4.5 E 15 20 8 11 1017.7 1017.7 0.2
27/10:30am 28.6 30.0 21.1 64 5.0 ESE 15 17 8 9 1018.0 1018.0 0.2
27/10:00am 27.4 27.9 20.0 64 4.8 SSE 17 20 9 11 1017.8 1017.8 0.0
27/09:30am 26.6 27.0 20.7 70 3.9 SSE 19 20 10 11 1017.6 1017.6 0.0
27/09:00am 25.7 27.1 21.1 76 3.0 SSE 15 17 8 9 1017.3 1017.3 0.0

Other Formats:

Comma delimited format used in spreadsheet applications
http://www.bom.gov.au/fwo/IDD60801/IDD60801.94248.axf

JavaScript Object Notation format (JSON) in row-major order
http://www.bom.gov.au/fwo/IDD60801/IDD60801.94248.json